createdAt,value
2023-03-05T00:01:35.054Z,0.80
2023-03-05T00:04:05.464Z,0.70
2023-03-05T00:06:34.072Z,0.70
2023-03-05T00:09:02.140Z,0.90
2023-03-05T00:11:30.799Z,0.80
2023-03-05T00:13:59.557Z,0.80
2023-03-05T00:16:28.973Z,0.80
2023-03-05T00:18:58.667Z,0.70
2023-03-05T00:21:35.664Z,0.70
2023-03-05T00:24:07.341Z,0.70
2023-03-05T00:26:39.192Z,0.60
2023-03-05T00:29:08.447Z,0.60
2023-03-05T00:31:37.491Z,0.60
2023-03-05T00:34:12.697Z,0.50
2023-03-05T00:36:42.817Z,0.50
2023-03-05T00:39:11.419Z,0.50
2023-03-05T00:41:39.408Z,0.50
2023-03-05T00:44:07.425Z,0.50
2023-03-05T00:46:36.580Z,0.50
2023-03-05T00:49:04.775Z,0.60
2023-03-05T00:51:32.238Z,0.50
2023-03-05T00:53:59.758Z,0.50
2023-03-05T00:56:27.859Z,0.60
2023-03-05T00:58:55.355Z,0.50
2023-03-05T01:01:23.724Z,0.50
2023-03-05T01:03:51.511Z,0.40
2023-03-05T01:06:19.370Z,0.30
2023-03-05T01:08:47.046Z,0.30
2023-03-05T01:11:14.712Z,0.30
2023-03-05T01:13:42.535Z,0.40
2023-03-05T01:16:10.241Z,0.40
2023-03-05T01:18:39.514Z,0.40
2023-03-05T01:21:07.397Z,0.30
2023-03-05T01:23:37.677Z,0.20
2023-03-05T01:26:06.608Z,0.20
2023-03-05T01:28:34.453Z,0.10
2023-03-05T01:31:02.057Z,0.10
2023-03-05T01:33:29.478Z,0.10
2023-03-05T01:35:56.944Z,0.10
2023-03-05T01:38:24.415Z,0.10
2023-03-05T01:40:51.878Z,0.10
2023-03-05T01:43:29.730Z,0.10
2023-03-05T01:46:26.284Z,0.00
2023-03-05T01:49:25.573Z,0.00
2023-03-05T01:52:17.952Z,0.00
2023-03-05T01:54:57.349Z,0.00
2023-03-05T01:57:35.494Z,0.00
2023-03-05T02:00:20.562Z,0.00
2023-03-05T02:02:51.062Z,0.00
2023-03-05T02:05:41.312Z,0.10
2023-03-05T02:08:15.187Z,0.20
2023-03-05T02:10:45.686Z,0.20
2023-03-05T02:13:18.988Z,0.30
2023-03-05T02:15:47.914Z,0.30
2023-03-05T02:18:16.584Z,0.30
2023-03-05T02:20:56.688Z,0.30
2023-03-05T02:23:38.817Z,0.30
2023-03-05T02:26:10.861Z,0.50
2023-03-05T02:29:05.745Z,0.40
2023-03-05T02:31:33.277Z,0.30
2023-03-05T02:34:00.825Z,0.10
2023-03-05T02:36:28.340Z,0.10
2023-03-05T02:38:57.223Z,0.00
2023-03-05T02:41:25.206Z,0.00
2023-03-05T02:43:52.712Z,0.00
2023-03-05T02:46:20.207Z,0.00
2023-03-05T02:48:47.698Z,0.00
2023-03-05T02:51:15.571Z,0.00
2023-03-05T02:53:42.999Z,-0.10
2023-03-05T02:56:10.728Z,-0.10
2023-03-05T02:58:38.390Z,-0.20
2023-03-05T03:01:05.996Z,-0.20
2023-03-05T03:03:33.551Z,-0.30
2023-03-05T03:06:01.255Z,-0.30
2023-03-05T03:08:28.714Z,-0.40
2023-03-05T03:10:56.699Z,-0.40
2023-03-05T03:13:25.489Z,-0.40
2023-03-05T03:16:07.380Z,-0.50
2023-03-05T03:18:35.051Z,-0.50
2023-03-05T03:21:03.444Z,-0.50
2023-03-05T03:23:31.730Z,-0.50
2023-03-05T03:25:59.402Z,-0.60
2023-03-05T03:28:26.874Z,-0.60
2023-03-05T03:30:54.383Z,-0.60
2023-03-05T03:33:21.891Z,-0.60
2023-03-05T03:35:49.384Z,-0.70
2023-03-05T03:38:16.817Z,-0.70
2023-03-05T03:40:44.357Z,-0.70
2023-03-05T03:43:11.777Z,-0.70
2023-03-05T03:45:45.632Z,-0.70
2023-03-05T03:48:13.144Z,-0.70
2023-03-05T03:50:42.564Z,-0.60
2023-03-05T03:53:14.473Z,-0.60
2023-03-05T03:55:43.242Z,-0.60
2023-03-05T03:58:11.061Z,-0.60
2023-03-05T04:00:40.403Z,-0.60
2023-03-05T04:03:08.577Z,-0.70
2023-03-05T04:05:36.067Z,-0.60
2023-03-05T04:08:03.692Z,-0.60
2023-03-05T04:10:31.128Z,-0.70
2023-03-05T04:12:58.582Z,-0.60
2023-03-05T04:15:26.106Z,-0.60
2023-03-05T04:17:53.540Z,-0.60
2023-03-05T04:20:21.067Z,-0.70
2023-03-05T04:22:48.628Z,-0.70
2023-03-05T04:25:16.188Z,-0.70
2023-03-05T04:27:43.656Z,-0.70
2023-03-05T04:30:15.074Z,-0.70
2023-03-05T04:32:42.713Z,-0.70
2023-03-05T04:35:10.781Z,-0.70
2023-03-05T04:37:38.475Z,-0.70
2023-03-05T04:40:06.932Z,-0.70
2023-03-05T04:42:34.444Z,-0.70
2023-03-05T04:45:01.848Z,-0.70
2023-03-05T04:47:29.264Z,-0.70
2023-03-05T04:49:56.681Z,-0.70
2023-03-05T04:52:24.173Z,-0.70
2023-03-05T04:54:51.686Z,-0.70
2023-03-05T04:57:19.124Z,-0.70
2023-03-05T04:59:46.582Z,-0.70
2023-03-05T05:02:14.038Z,-0.70
2023-03-05T05:04:45.196Z,-0.70
2023-03-05T05:07:13.104Z,-0.60
2023-03-05T05:09:41.723Z,-0.60
2023-03-05T05:12:10.647Z,-0.60
2023-03-05T05:14:38.765Z,-0.70
2023-03-05T05:17:06.285Z,-0.80
2023-03-05T05:19:35.659Z,-0.90
2023-03-05T05:22:03.468Z,-0.90
2023-03-05T05:24:30.865Z,-1.00
2023-03-05T05:26:58.323Z,-1.00
2023-03-05T05:29:26.254Z,-1.00
2023-03-05T05:31:54.352Z,-1.00
2023-03-05T05:34:21.900Z,-1.00
2023-03-05T05:36:49.323Z,-0.90
2023-03-05T05:39:17.750Z,-0.90
2023-03-05T05:41:46.511Z,-0.90
2023-03-05T05:44:13.977Z,-0.90
2023-03-05T05:46:41.476Z,-0.90
2023-03-05T05:49:08.999Z,-0.90
2023-03-05T05:51:36.522Z,-0.90
2023-03-05T05:54:04.185Z,-0.90
2023-03-05T05:56:31.603Z,-0.90
2023-03-05T05:58:59.017Z,-0.80
2023-03-05T06:01:30.858Z,-0.80
2023-03-05T06:03:58.955Z,-0.80
2023-03-05T06:06:27.817Z,-0.70
2023-03-05T06:08:56.113Z,-0.70
2023-03-05T06:11:23.635Z,-0.70
2023-03-05T06:13:51.213Z,-0.70
2023-03-05T06:16:25.016Z,-0.70
2023-03-05T06:18:53.441Z,-0.70
2023-03-05T06:21:22.908Z,-0.70
2023-03-05T06:23:50.782Z,-0.70
2023-03-05T06:26:23.024Z,-0.70
2023-03-05T06:28:50.874Z,-0.60
2023-03-05T06:31:25.909Z,-0.60
2023-03-05T06:33:56.830Z,-0.60
2023-03-05T06:36:25.662Z,-0.60
2023-03-05T06:38:54.500Z,-0.50
2023-03-05T06:41:26.928Z,-0.50
2023-03-05T06:43:55.429Z,-0.50
2023-03-05T06:46:30.095Z,-0.40
2023-03-05T06:49:00.363Z,-0.30
2023-03-05T06:51:32.439Z,-0.30
2023-03-05T06:54:06.777Z,-0.20
2023-03-05T06:56:37.404Z,-0.20
2023-03-05T06:59:05.970Z,-0.20
2023-03-05T07:01:34.103Z,-0.10
2023-03-05T07:04:03.224Z,-0.10
2023-03-05T07:06:34.853Z,0.00
2023-03-05T07:09:04.167Z,0.00
2023-03-05T07:11:32.071Z,0.10
2023-03-05T07:14:00.151Z,0.20
2023-03-05T07:16:31.495Z,0.20
2023-03-05T07:19:03.044Z,0.30
2023-03-05T07:21:33.274Z,0.30
2023-03-05T07:24:02.582Z,0.40
2023-03-05T07:26:31.153Z,0.40
2023-03-05T07:28:59.421Z,0.40
2023-03-05T07:31:31.646Z,0.50
2023-03-05T07:34:01.493Z,0.60
2023-03-05T07:36:30.069Z,0.60
2023-03-05T07:38:57.606Z,0.60
2023-03-05T07:41:25.460Z,0.70
2023-03-05T07:43:55.005Z,0.80
2023-03-05T07:46:27.751Z,0.70
2023-03-05T07:48:57.150Z,0.80
2023-03-05T07:51:26.490Z,0.90
2023-03-05T07:53:57.672Z,1.00
2023-03-05T07:56:32.214Z,1.00
2023-03-05T07:59:02.381Z,1.10
2023-03-05T08:01:31.398Z,1.10
2023-03-05T08:03:59.153Z,1.00
2023-03-05T08:06:27.376Z,1.00
2023-03-05T08:08:55.555Z,1.00
2023-03-05T08:11:23.016Z,1.00
2023-03-05T08:13:50.828Z,1.00
2023-03-05T08:16:21.908Z,1.00
2023-03-05T08:18:49.872Z,0.90
2023-03-05T08:21:34.202Z,1.00
2023-03-05T08:24:08.545Z,1.10
2023-03-05T08:26:38.690Z,1.30
2023-03-05T08:29:08.646Z,1.40
2023-03-05T08:31:37.678Z,1.50
2023-03-05T08:34:07.026Z,1.60
2023-03-05T08:36:34.492Z,1.60
2023-03-05T08:39:02.231Z,1.30
2023-03-05T08:41:29.983Z,1.30
2023-03-05T08:43:57.522Z,1.30
2023-03-05T08:46:25.479Z,1.30
2023-03-05T08:48:53.055Z,1.10
2023-03-05T08:51:25.925Z,0.90
2023-03-05T08:53:56.517Z,1.00
2023-03-05T08:56:24.054Z,1.00
2023-03-05T08:58:52.641Z,0.90
2023-03-05T09:01:20.433Z,0.90
2023-03-05T09:03:47.871Z,0.90
2023-03-05T09:06:15.312Z,0.90
2023-03-05T09:08:42.803Z,0.80
2023-03-05T09:11:13.170Z,0.80
2023-03-05T09:13:40.819Z,0.80
2023-03-05T09:16:14.433Z,0.90
2023-03-05T09:18:42.646Z,0.80
2023-03-05T09:21:14.816Z,0.90
2023-03-05T09:23:43.530Z,1.00
2023-03-05T09:26:13.420Z,0.90
2023-03-05T09:28:41.639Z,0.90
2023-03-05T09:31:10.445Z,0.90
2023-03-05T09:33:39.099Z,1.00
2023-03-05T09:36:19.864Z,0.80
2023-03-05T09:38:47.589Z,0.80
2023-03-05T09:41:31.397Z,0.90
2023-03-05T09:44:24.566Z,0.90
2023-03-05T09:46:56.484Z,1.00
2023-03-05T09:49:41.885Z,1.00
2023-03-05T09:52:26.367Z,1.10
2023-03-05T09:54:55.934Z,1.00
2023-03-05T09:57:47.256Z,1.10
2023-03-05T10:00:33.868Z,1.30
2023-03-05T10:03:10.369Z,1.30
2023-03-05T10:06:15.430Z,1.30
2023-03-05T10:09:13.874Z,1.30
2023-03-05T10:12:06.511Z,1.50
2023-03-05T10:14:41.331Z,1.60
2023-03-05T10:17:37.638Z,1.70
2023-03-05T10:20:30.917Z,1.70
2023-03-05T10:23:08.990Z,1.70
2023-03-05T10:26:19.327Z,2.00
2023-03-05T10:29:08.351Z,2.00
2023-03-05T10:32:28.247Z,2.00
2023-03-05T10:35:16.936Z,2.10
2023-03-05T10:38:35.650Z,2.40
2023-03-05T10:41:41.648Z,2.30
2023-03-05T10:44:47.035Z,2.40
2023-03-05T10:47:46.410Z,2.60
2023-03-05T10:50:34.036Z,2.90
2023-03-05T10:53:22.074Z,2.80
2023-03-05T10:55:51.595Z,2.90
2023-03-05T10:58:19.054Z,2.80
2023-03-05T11:01:22.402Z,2.90
2023-03-05T11:03:57.412Z,2.80
2023-03-05T11:06:43.473Z,2.70
2023-03-05T11:09:32.576Z,2.80
2023-03-05T11:12:19.643Z,2.80
2023-03-05T11:15:07.772Z,2.70
2023-03-05T11:17:44.726Z,2.80
2023-03-05T11:20:27.233Z,2.80
2023-03-05T11:23:15.148Z,2.80
2023-03-05T11:25:59.081Z,2.60
2023-03-05T11:28:33.206Z,2.40
2023-03-05T11:31:07.602Z,2.50
2023-03-05T11:33:37.517Z,2.60
2023-03-05T11:36:43.965Z,2.40
2023-03-05T11:39:17.824Z,2.20
2023-03-05T11:41:52.200Z,1.70
2023-03-05T11:44:40.886Z,1.40
2023-03-05T11:47:26.364Z,1.30
2023-03-05T11:50:02.680Z,1.30
2023-03-05T11:52:37.155Z,1.30
2023-03-05T11:55:31.059Z,1.20
2023-03-05T11:58:08.244Z,1.20
2023-03-05T12:00:39.354Z,1.10
2023-03-05T12:03:15.788Z,1.10
2023-03-05T12:05:48.659Z,1.20
2023-03-05T12:08:26.524Z,1.10
2023-03-05T12:10:54.072Z,1.00
2023-03-05T12:13:35.658Z,0.90
2023-03-05T12:16:17.481Z,0.70
2023-03-05T12:18:55.976Z,0.60
2023-03-05T12:21:41.485Z,0.50
2023-03-05T12:24:26.750Z,0.40
2023-03-05T12:27:04.156Z,0.50
2023-03-05T12:29:51.004Z,0.90
2023-03-05T12:32:31.647Z,1.40
2023-03-05T12:35:29.791Z,1.50
2023-03-05T12:38:01.804Z,1.60
2023-03-05T12:40:35.184Z,2.00
2023-03-05T12:43:06.797Z,2.10
2023-03-05T12:45:42.424Z,2.20
2023-03-05T12:48:12.369Z,2.20
2023-03-05T12:50:39.743Z,2.20
2023-03-05T12:53:18.980Z,2.20
2023-03-05T12:56:20.108Z,2.30
2023-03-05T12:58:54.196Z,2.50
2023-03-05T13:01:40.058Z,3.10
2023-03-05T13:04:17.305Z,3.10
2023-03-05T13:06:44.725Z,3.10
2023-03-05T13:09:24.665Z,3.00
2023-03-05T13:11:54.532Z,2.80
2023-03-05T13:14:56.384Z,2.90
2023-03-05T13:17:44.607Z,2.60
2023-03-05T13:20:34.275Z,2.60
2023-03-05T13:23:27.609Z,2.60
2023-03-05T13:26:19.031Z,2.40
2023-03-05T13:29:03.296Z,2.30
2023-03-05T13:31:31.030Z,2.30
2023-03-05T13:34:11.783Z,2.20
2023-03-05T13:36:40.225Z,2.20
2023-03-05T13:39:07.993Z,2.00
2023-03-05T13:41:35.419Z,1.90
2023-03-05T13:44:03.427Z,1.90
2023-03-05T13:46:34.227Z,1.80
2023-03-05T13:49:26.310Z,1.80
2023-03-05T13:52:00.230Z,1.80
2023-03-05T13:54:28.756Z,1.80
2023-03-05T13:57:08.124Z,1.70
2023-03-05T13:59:39.331Z,1.70
2023-03-05T14:02:20.080Z,1.70
2023-03-05T14:04:48.903Z,1.60
2023-03-05T14:07:33.203Z,1.60
2023-03-05T14:10:01.596Z,1.40
2023-03-05T14:12:35.672Z,1.40
2023-03-05T14:15:16.908Z,1.40
2023-03-05T14:17:44.430Z,1.30
2023-03-05T14:20:30.335Z,1.40
2023-03-05T14:23:01.108Z,1.50
2023-03-05T14:25:38.280Z,1.60
2023-03-05T14:28:17.929Z,1.50
2023-03-05T14:30:49.873Z,1.50
2023-03-05T14:33:27.801Z,1.50
2023-03-05T14:35:56.087Z,1.70
2023-03-05T14:38:31.140Z,1.90
2023-03-05T14:40:58.656Z,1.80
2023-03-05T14:43:26.134Z,1.90
2023-03-05T14:45:53.600Z,1.90
2023-03-05T14:48:20.998Z,1.90
2023-03-05T14:50:56.252Z,1.90
2023-03-05T14:53:34.704Z,1.90
2023-03-05T14:56:02.436Z,1.90
2023-03-05T14:58:33.703Z,1.90
2023-03-05T15:01:01.364Z,1.80
2023-03-05T15:03:28.889Z,1.70
2023-03-05T15:05:58.518Z,1.70
2023-03-05T15:08:29.435Z,1.70
2023-03-05T15:10:57.882Z,1.60
2023-03-05T15:13:26.195Z,1.60
2023-03-05T15:15:54.352Z,1.60
2023-03-05T15:18:23.904Z,1.60
2023-03-05T15:20:57.068Z,1.70
2023-03-05T15:23:24.699Z,1.70
2023-03-05T15:25:52.160Z,1.60
2023-03-05T15:28:19.598Z,1.50
2023-03-05T15:30:48.238Z,1.50
2023-03-05T15:33:17.989Z,1.40
2023-03-05T15:35:46.099Z,1.40
2023-03-05T15:38:15.450Z,1.40
2023-03-05T15:40:44.326Z,1.30
2023-03-05T15:43:11.833Z,1.30
2023-03-05T15:45:39.526Z,1.30
2023-03-05T15:48:07.370Z,1.30
2023-03-05T15:50:34.798Z,1.30
2023-03-05T15:53:02.268Z,1.20
2023-03-05T15:55:29.703Z,1.20
2023-03-05T15:57:57.190Z,1.30
2023-03-05T16:00:30.245Z,1.30
2023-03-05T16:02:57.837Z,1.30
2023-03-05T16:05:25.638Z,1.20
2023-03-05T16:07:54.312Z,1.20
2023-03-05T16:10:26.294Z,1.20
2023-03-05T16:13:02.964Z,1.20
2023-03-05T16:15:33.105Z,1.10
2023-03-05T16:18:05.192Z,1.00
2023-03-05T16:20:32.838Z,0.90
2023-03-05T16:23:00.487Z,0.80
2023-03-05T16:25:27.920Z,0.70
2023-03-05T16:27:55.430Z,0.70
2023-03-05T16:30:23.195Z,0.60
2023-03-05T16:32:53.196Z,0.60
2023-03-05T16:35:21.451Z,0.50
2023-03-05T16:37:49.032Z,0.40
2023-03-05T16:40:17.622Z,0.30
2023-03-05T16:42:45.069Z,0.30
2023-03-05T16:45:13.488Z,0.30
2023-03-05T16:47:41.655Z,0.30
2023-03-05T16:50:12.118Z,0.30
2023-03-05T16:52:40.106Z,0.30
2023-03-05T16:55:08.373Z,0.30
2023-03-05T16:57:35.836Z,0.30
2023-03-05T17:00:04.875Z,0.30
2023-03-05T17:02:32.341Z,0.30
2023-03-05T17:05:00.136Z,0.20
2023-03-05T17:07:28.026Z,0.20
2023-03-05T17:09:55.802Z,0.30
2023-03-05T17:12:23.633Z,0.30
2023-03-05T17:14:51.154Z,0.20
2023-03-05T17:17:18.647Z,0.10
2023-03-05T17:19:46.131Z,0.10
2023-03-05T17:22:13.566Z,0.00
2023-03-05T17:24:42.995Z,-0.10
2023-03-05T17:27:11.330Z,-0.10
2023-03-05T17:29:38.911Z,-0.10
2023-03-05T17:32:06.952Z,-0.20
2023-03-05T17:34:36.937Z,-0.20
2023-03-05T17:37:05.894Z,-0.30
2023-03-05T17:39:34.112Z,-0.40
2023-03-05T17:42:01.985Z,-0.50
2023-03-05T17:44:29.620Z,-0.50
2023-03-05T17:46:57.032Z,-0.60
2023-03-05T17:49:24.468Z,-0.60
2023-03-05T17:51:51.933Z,-0.70
2023-03-05T17:54:19.359Z,-0.70
2023-03-05T17:56:48.209Z,-0.70
2023-03-05T17:59:16.534Z,-0.70
2023-03-05T18:01:44.048Z,-0.60
2023-03-05T18:04:11.596Z,-0.70
2023-03-05T18:06:39.357Z,-0.70
2023-03-05T18:09:07.145Z,-0.80
2023-03-05T18:11:34.595Z,-0.80
2023-03-05T18:14:02.279Z,-0.80
2023-03-05T18:16:30.246Z,-0.80
2023-03-05T18:18:57.657Z,-0.90
2023-03-05T18:21:28.241Z,-0.90
2023-03-05T18:23:55.719Z,-0.90
2023-03-05T18:26:23.140Z,-0.90
2023-03-05T18:28:50.564Z,-1.00
2023-03-05T18:31:18.516Z,-1.00
2023-03-05T18:33:45.965Z,-1.00
2023-03-05T18:36:15.171Z,-1.00
2023-03-05T18:38:43.083Z,-1.10
2023-03-05T18:41:21.115Z,-1.10
2023-03-05T18:43:48.843Z,-1.10
2023-03-05T18:46:17.337Z,-1.10
2023-03-05T18:48:44.778Z,-1.10
2023-03-05T18:51:19.065Z,-1.20
2023-03-05T18:53:46.781Z,-1.20
2023-03-05T18:56:14.378Z,-1.20
2023-03-05T18:58:41.900Z,-1.20
2023-03-05T19:01:09.563Z,-1.30
2023-03-05T19:03:37.121Z,-1.30
2023-03-05T19:06:07.267Z,-1.30
2023-03-05T19:08:34.975Z,-1.30
2023-03-05T19:11:03.241Z,-1.30
2023-03-05T19:13:49.081Z,-1.30
2023-03-05T19:16:29.482Z,-1.20
2023-03-05T19:19:24.735Z,-1.30
2023-03-05T19:21:55.302Z,-1.30
2023-03-05T19:24:25.112Z,-1.30
2023-03-05T19:26:55.502Z,-1.30
2023-03-05T19:29:28.570Z,-1.30
2023-03-05T19:31:56.035Z,-1.30
2023-03-05T19:34:23.495Z,-1.30
2023-03-05T19:36:51.083Z,-1.30
2023-03-05T19:39:19.908Z,-1.30
2023-03-05T19:41:47.460Z,-1.20
2023-03-05T19:44:15.387Z,-1.20
2023-03-05T19:46:43.735Z,-1.30
2023-03-05T19:49:11.577Z,-1.30
2023-03-05T19:51:41.697Z,-1.30
2023-03-05T19:54:09.634Z,-1.30
2023-03-05T19:56:42.279Z,-1.30
2023-03-05T19:59:10.722Z,-1.30
2023-03-05T20:01:38.628Z,-1.30
2023-03-05T20:04:06.084Z,-1.20
2023-03-05T20:06:34.821Z,-1.20
2023-03-05T20:09:02.420Z,-1.20
2023-03-05T20:11:29.998Z,-1.20
2023-03-05T20:13:57.862Z,-1.30
2023-03-05T20:16:31.624Z,-1.30
2023-03-05T20:19:00.174Z,-1.30
2023-03-05T20:21:34.918Z,-1.30
2023-03-05T20:24:09.454Z,-1.30
2023-03-05T20:26:39.864Z,-1.30
2023-03-05T20:29:08.418Z,-1.30
2023-03-05T20:31:37.608Z,-1.30
2023-03-05T20:34:12.925Z,-1.30
2023-03-05T20:36:40.760Z,-1.30
2023-03-05T20:39:08.651Z,-1.30
2023-03-05T20:41:38.374Z,-1.30
2023-03-05T20:44:06.752Z,-1.30
2023-03-05T20:46:39.621Z,-1.30
2023-03-05T20:49:07.167Z,-1.30
2023-03-05T20:51:38.238Z,-1.30
2023-03-05T20:54:12.010Z,-1.30
2023-03-05T20:56:39.772Z,-1.20
2023-03-05T20:59:09.027Z,-1.20
2023-03-05T21:01:39.483Z,-1.20
2023-03-05T21:04:08.296Z,-1.10
2023-03-05T21:06:36.549Z,-1.10
2023-03-05T21:09:04.591Z,-1.10
2023-03-05T21:11:32.487Z,-1.10
2023-03-05T21:14:00.001Z,-1.00
2023-03-05T21:16:28.359Z,-1.00
2023-03-05T21:18:57.485Z,-1.00
2023-03-05T21:21:25.380Z,-1.00
2023-03-05T21:23:53.629Z,-1.10
2023-03-05T21:26:21.541Z,-1.00
2023-03-05T21:28:49.544Z,-1.00
2023-03-05T21:31:22.557Z,-1.10
2023-03-05T21:33:50.490Z,-1.00
2023-03-05T21:36:19.031Z,-1.00
2023-03-05T21:38:50.458Z,-1.00
2023-03-05T21:41:20.747Z,-1.10
2023-03-05T21:43:48.636Z,-1.10
2023-03-05T21:46:16.289Z,-1.10
2023-03-05T21:48:43.779Z,-1.10
2023-03-05T21:51:13.798Z,-1.10
2023-03-05T21:53:41.475Z,-1.10
2023-03-05T21:56:19.112Z,-1.10
2023-03-05T21:58:46.886Z,-1.10
2023-03-05T22:01:16.450Z,-1.10
2023-03-05T22:03:44.066Z,-1.10
2023-03-05T22:06:13.316Z,-1.10
2023-03-05T22:08:41.055Z,-1.10
2023-03-05T22:11:14.495Z,-1.10
2023-03-05T22:13:42.551Z,-1.10
2023-03-05T22:16:10.965Z,-1.20
2023-03-05T22:18:38.465Z,-1.20
2023-03-05T22:21:14.079Z,-1.20
2023-03-05T22:23:41.499Z,-1.20
2023-03-05T22:26:08.996Z,-1.20
2023-03-05T22:28:39.060Z,-1.20
2023-03-05T22:31:06.907Z,-1.30
2023-03-05T22:33:34.387Z,-1.20
2023-03-05T22:36:09.534Z,-1.20
2023-03-05T22:38:37.123Z,-1.20
2023-03-05T22:41:09.659Z,-1.20
2023-03-05T22:43:37.924Z,-1.30
2023-03-05T22:46:25.575Z,-1.20
2023-03-05T22:48:53.656Z,-1.30
2023-03-05T22:51:21.403Z,-1.20
2023-03-05T22:53:48.932Z,-1.30
2023-03-05T22:56:19.844Z,-1.30
2023-03-05T22:58:47.600Z,-1.40
2023-03-05T23:01:19.172Z,-1.40
2023-03-05T23:03:47.552Z,-1.40
2023-03-05T23:06:15.069Z,-1.40
2023-03-05T23:08:42.494Z,-1.40
2023-03-05T23:11:12.439Z,-1.40
2023-03-05T23:13:41.164Z,-1.40
2023-03-05T23:16:09.866Z,-1.40
2023-03-05T23:18:37.655Z,-1.50
2023-03-05T23:21:05.372Z,-1.50
2023-03-05T23:23:32.875Z,-1.60
2023-03-05T23:26:00.466Z,-1.60
2023-03-05T23:28:27.970Z,-1.80
2023-03-05T23:30:55.433Z,-1.80
2023-03-05T23:33:24.418Z,-1.90
2023-03-05T23:35:56.278Z,-2.00
2023-03-05T23:38:24.774Z,-2.10
2023-03-05T23:41:00.702Z,-2.10
2023-03-05T23:43:29.150Z,-2.20
2023-03-05T23:45:57.461Z,-2.20
2023-03-05T23:48:27.302Z,-2.20
2023-03-05T23:50:55.034Z,-2.30
2023-03-05T23:53:27.663Z,-2.30
2023-03-05T23:55:56.176Z,-2.50
2023-03-05T23:58:24.066Z,-2.60
